Time;durP1;ratioP1;P1;durP2;ratioP2;P2;SDS_P1;SDS_P2;PMS_P1;PMS_P2;Temp;Humidity;BMP_temperature;BMP_pressure;BME280_temperature;BME280_humidity;BME280_pressure;Samples;Min_cycle;Max_cycle;Signal;HPM_P1;HPM_P2
2021/08/29 00:02:20;;;;;;;14.27;6.45;;;17.50;69.20;;;;;;5050686;28;20036;-71
2021/08/29 00:04:46;;;;;;;10.20;5.78;;;17.60;69.50;;;;;;5049643;28;20017;-72
2021/08/29 00:07:12;;;;;;;11.50;4.47;;;17.60;69.40;;;;;;5049627;28;20107;-72
2021/08/29 00:09:37;;;;;;;9.43;4.40;;;17.50;69.00;;;;;;5048459;28;20025;-71
2021/08/29 00:12:04;;;;;;;6.43;3.53;;;17.50;69.60;;;;;;5048559;28;20025;-72
2021/08/29 00:14:29;;;;;;;5.85;3.58;;;17.40;69.50;;;;;;5050007;28;20033;-71
2021/08/29 00:16:55;;;;;;;7.57;3.25;;;17.40;69.70;;;;;;5049400;28;20129;-75
2021/08/29 00:19:20;;;;;;;5.80;3.13;;;17.40;69.90;;;;;;5049778;28;20021;-72
2021/08/29 00:21:46;;;;;;;5.45;2.67;;;17.40;70.00;;;;;;5049665;28;20025;-71
2021/08/29 00:24:12;;;;;;;5.55;3.45;;;17.40;69.80;;;;;;5048372;28;20017;-72
2021/08/29 00:26:37;;;;;;;27.00;14.23;;;17.30;70.10;;;;;;5051865;28;20048;-72
2021/08/29 00:29:03;;;;;;;21.52;11.05;;;17.30;70.10;;;;;;5048388;28;20520;-72
2021/08/29 00:31:29;;;;;;;18.40;10.93;;;17.40;70.30;;;;;;5049165;28;20096;-72
2021/08/29 00:33:56;;;;;;;18.75;8.80;;;17.40;69.90;;;;;;5049550;28;20106;-72
2021/08/29 00:36:21;;;;;;;14.43;7.18;;;17.30;69.70;;;;;;5048172;28;20032;-72
2021/08/29 00:38:47;;;;;;;10.18;5.88;;;17.30;70.10;;;;;;5050494;28;20028;-71
2021/08/29 00:41:13;;;;;;;11.10;4.95;;;17.30;70.00;;;;;;5050490;28;20064;-71
2021/08/29 00:43:40;;;;;;;12.73;5.75;;;17.30;70.10;;;;;;5048182;28;20063;-72
2021/08/29 00:46:09;;;;;;;8.52;4.45;;;17.20;70.20;;;;;;5048915;28;20021;-72
2021/08/29 00:48:34;;;;;;;7.50;4.00;;;17.20;70.60;;;;;;5049501;28;20029;-71
2021/08/29 00:51:00;;;;;;;8.15;3.60;;;17.30;70.50;;;;;;5048161;28;20123;-72
2021/08/29 00:53:26;;;;;;;7.07;3.83;;;17.20;70.30;;;;;;5051445;28;20035;-72
2021/08/29 00:55:53;;;;;;;7.35;3.10;;;17.20;70.40;;;;;;5049409;28;20021;-72
2021/08/29 00:58:21;;;;;;;8.63;4.53;;;17.20;70.50;;;;;;5049137;28;20033;-72
2021/08/29 01:00:48;;;;;;;16.30;8.20;;;17.20;70.70;;;;;;5049052;28;20017;-71
2021/08/29 01:03:26;;;;;;;22.67;10.65;;;17.20;70.60;;;;;;5048054;28;20574;-71
2021/08/29 01:06:00;;;;;;;19.45;9.80;;;17.20;70.00;;;;;;5050111;28;20025;-71
2021/08/29 01:08:30;;;;;;;12.65;6.93;;;17.20;69.90;;;;;;5052523;28;20067;-71
2021/08/29 01:11:17;;;;;;;14.90;7.68;;;17.10;70.40;;;;;;5052744;28;20024;-72
2021/08/29 01:13:45;;;;;;;14.88;7.32;;;17.00;70.30;;;;;;5052580;28;20742;-72
2021/08/29 01:16:15;;;;;;;8.38;4.80;;;17.00;71.20;;;;;;5050769;28;20021;-72
2021/08/29 01:18:43;;;;;;;9.57;4.40;;;17.00;71.10;;;;;;5050612;28;20087;-73
2021/08/29 01:21:10;;;;;;;9.27;4.30;;;17.00;71.20;;;;;;5052772;28;20040;-72
2021/08/29 01:23:39;;;;;;;8.38;4.30;;;17.00;71.60;;;;;;5053505;28;20020;-71
2021/08/29 01:26:18;;;;;;;8.55;4.55;;;17.00;71.70;;;;;;5053225;28;20104;-73
2021/08/29 01:29:06;;;;;;;7.43;3.65;;;17.00;71.30;;;;;;5051014;28;20123;-72
2021/08/29 01:31:34;;;;;;;8.38;3.53;;;17.00;71.00;;;;;;5050679;28;20025;-73
2021/08/29 01:34:05;;;;;;;6.90;3.17;;;17.00;71.50;;;;;;5052500;28;20037;-72
2021/08/29 01:36:31;;;;;;;5.75;2.83;;;16.90;71.80;;;;;;5052330;28;20413;-72
2021/08/29 01:38:59;;;;;;;8.00;2.90;;;16.90;72.20;;;;;;5050963;28;20397;-74
2021/08/29 01:41:26;;;;;;;6.72;2.72;;;16.80;71.50;;;;;;5052787;28;20075;-72
2021/08/29 01:43:52;;;;;;;4.85;2.53;;;16.80;72.10;;;;;;5050885;28;20036;-73
2021/08/29 01:46:19;;;;;;;4.47;2.97;;;16.90;71.90;;;;;;5051516;28;20017;-72
2021/08/29 01:48:45;;;;;;;5.85;2.63;;;16.80;71.70;;;;;;5052018;28;20120;-72
2021/08/29 01:51:11;;;;;;;5.18;2.88;;;16.80;72.20;;;;;;5050834;28;20108;-74
2021/08/29 01:53:39;;;;;;;5.15;2.72;;;16.80;72.40;;;;;;5054193;28;20037;-71
2021/08/29 01:56:06;;;;;;;6.32;2.67;;;16.80;72.20;;;;;;5052482;28;20032;-71
2021/08/29 01:58:32;;;;;;;6.72;2.90;;;16.80;72.30;;;;;;5050279;28;20025;-72
2021/08/29 02:01:00;;;;;;;5.95;2.97;;;16.80;72.80;;;;;;5054585;28;20068;-72
2021/08/29 02:03:28;;;;;;;6.07;2.65;;;16.70;72.50;;;;;;5052053;28;20103;-72
2021/08/29 02:06:01;;;;;;;6.30;3.10;;;16.70;73.60;;;;;;5052495;28;20040;-72
2021/08/29 02:08:27;;;;;;;5.43;2.83;;;16.70;72.50;;;;;;5052865;28;20053;-71
2021/08/29 02:10:58;;;;;;;5.40;2.78;;;16.70;72.50;;;;;;5051721;28;20071;-71
2021/08/29 02:13:26;;;;;;;8.15;3.30;;;16.70;72.60;;;;;;5048686;28;20069;-72
2021/08/29 02:15:58;;;;;;;6.75;3.42;;;16.60;72.40;;;;;;5051881;28;20096;-72
2021/08/29 02:18:25;;;;;;;6.38;2.88;;;16.60;72.40;;;;;;5050451;28;20025;-71
2021/08/29 02:20:52;;;;;;;6.28;2.92;;;16.50;72.60;;;;;;5050991;28;20098;-72
2021/08/29 02:23:20;;;;;;;6.45;2.90;;;16.50;73.60;;;;;;5052283;28;20017;-72
2021/08/29 02:25:47;;;;;;;7.40;3.10;;;16.50;72.80;;;;;;5051504;28;20042;-72
2021/08/29 02:28:13;;;;;;;5.57;2.67;;;16.50;73.30;;;;;;5051086;28;20506;-72
2021/08/29 02:30:41;;;;;;;6.63;2.70;;;16.50;73.40;;;;;;5051554;28;20048;-72
2021/08/29 02:33:06;;;;;;;6.43;3.00;;;16.50;73.40;;;;;;5035589;28;20045;-72
2021/08/29 02:35:32;;;;;;;6.43;2.50;;;16.50;73.30;;;;;;5053338;28;20021;-72
2021/08/29 02:37:59;;;;;;;7.30;3.00;;;16.50;73.50;;;;;;5051307;28;20051;-72
2021/08/29 02:40:28;;;;;;;7.03;3.15;;;16.50;73.10;;;;;;5051241;28;20545;-72
2021/08/29 02:42:54;;;;;;;6.72;2.97;;;16.50;73.30;;;;;;5049494;28;20052;-71
2021/08/29 02:45:20;;;;;;;5.32;3.00;;;16.50;73.40;;;;;;5051297;28;20021;-72
2021/08/29 02:47:46;;;;;;;5.72;2.80;;;16.50;73.40;;;;;;5051931;28;20444;-72
2021/08/29 02:50:13;;;;;;;7.10;3.42;;;16.40;73.30;;;;;;5052522;28;20020;-71
2021/08/29 02:52:39;;;;;;;6.38;3.30;;;16.40;73.60;;;;;;5050918;28;20037;-71
2021/08/29 02:55:05;;;;;;;4.82;2.83;;;16.40;73.70;;;;;;5050923;28;20072;-72
2021/08/29 02:57:36;;;;;;;6.75;2.83;;;16.40;73.60;;;;;;5050551;28;20044;-72
2021/08/29 03:00:02;;;;;;;6.25;3.40;;;16.40;73.60;;;;;;5050914;28;20053;-71
2021/08/29 03:02:28;;;;;;;6.20;3.00;;;16.30;73.80;;;;;;5051769;28;20059;-72
2021/08/29 03:04:54;;;;;;;6.20;3.30;;;16.20;73.80;;;;;;5049503;28;20441;-73
2021/08/29 03:07:20;;;;;;;5.55;2.75;;;16.20;74.00;;;;;;5050687;28;20017;-72
2021/08/29 03:09:46;;;;;;;7.30;3.45;;;16.20;74.20;;;;;;5050688;28;20025;-71
2021/08/29 03:12:12;;;;;;;5.93;3.15;;;16.20;74.60;;;;;;5048942;28;20044;-73
2021/08/29 03:14:39;;;;;;;5.65;3.20;;;16.20;74.30;;;;;;5052507;28;20037;-72
2021/08/29 03:17:06;;;;;;;5.82;3.17;;;16.20;74.30;;;;;;5049697;28;20021;-71
2021/08/29 03:19:33;;;;;;;5.60;3.17;;;16.20;74.30;;;;;;5050729;28;20021;-72
2021/08/29 03:21:59;;;;;;;9.93;3.20;;;16.20;74.60;;;;;;5050531;28;20045;-72
2021/08/29 03:24:25;;;;;;;5.47;3.08;;;16.20;74.30;;;;;;5050487;28;20159;-72
2021/08/29 03:26:51;;;;;;;6.88;3.10;;;16.10;74.30;;;;;;5049145;28;20580;-72
2021/08/29 03:29:17;;;;;;;6.10;3.38;;;16.10;74.50;;;;;;5049984;28;20036;-72
2021/08/29 03:31:43;;;;;;;7.35;3.28;;;16.10;75.00;;;;;;5050397;28;20036;-71
2021/08/29 03:34:12;;;;;;;5.75;3.22;;;16.10;74.90;;;;;;5048898;28;20036;-73
2021/08/29 03:36:41;;;;;;;4.68;3.20;;;16.10;74.70;;;;;;5050317;28;20021;-72
2021/08/29 03:39:07;;;;;;;5.70;3.17;;;16.10;74.80;;;;;;5034871;28;20491;-72
2021/08/29 03:41:34;;;;;;;5.60;3.08;;;16.10;75.20;;;;;;5046305;28;20062;-72
2021/08/29 03:44:00;;;;;;;5.25;3.08;;;16.10;75.10;;;;;;5050409;28;20025;-72
2021/08/29 03:46:26;;;;;;;5.15;3.08;;;16.10;75.10;;;;;;5050161;28;20036;-72
2021/08/29 03:48:52;;;;;;;5.53;3.05;;;16.10;75.00;;;;;;5048879;28;20400;-71
2021/08/29 03:51:19;;;;;;;4.28;2.97;;;16.10;75.10;;;;;;5048853;28;20025;-72
2021/08/29 03:53:44;;;;;;;6.68;2.90;;;16.10;74.90;;;;;;5051211;28;20045;-72
2021/08/29 03:56:11;;;;;;;5.65;2.97;;;16.10;75.00;;;;;;5050982;28;20023;-71
2021/08/29 03:58:40;;;;;;;7.80;3.10;;;16.10;75.00;;;;;;5050192;28;20107;-71
2021/08/29 04:01:06;;;;;;;6.90;3.13;;;16.00;75.10;;;;;;5049956;28;20104;-72
2021/08/29 04:03:32;;;;;;;5.40;3.13;;;16.00;75.20;;;;;;5049266;28;20458;-72
2021/08/29 04:06:02;;;;;;;5.68;3.28;;;16.00;75.30;;;;;;5049510;28;20064;-71
2021/08/29 04:08:35;;;;;;;6.18;3.10;;;16.00;75.00;;;;;;5051613;28;20513;-72
2021/08/29 04:11:02;;;;;;;5.38;2.97;;;15.90;75.00;;;;;;5048958;28;20044;-73
2021/08/29 04:13:30;;;;;;;6.10;3.00;;;15.90;75.30;;;;;;5048419;28;20036;-73
2021/08/29 04:15:56;;;;;;;5.93;3.00;;;15.90;75.20;;;;;;5049170;28;20029;-74
2021/08/29 04:18:23;;;;;;;7.45;2.97;;;15.90;75.40;;;;;;5048424;28;20489;-72
2021/08/29 04:20:50;;;;;;;5.47;2.85;;;15.90;75.20;;;;;;5050538;28;20044;-71
2021/08/29 04:23:16;;;;;;;7.28;3.05;;;15.80;75.20;;;;;;5051759;28;20043;-72
2021/08/29 04:25:42;;;;;;;7.15;3.67;;;15.80;75.60;;;;;;5049320;28;20108;-71
2021/08/29 04:28:08;;;;;;;5.78;2.95;;;15.80;75.60;;;;;;5049779;28;20033;-72
2021/08/29 04:30:34;;;;;;;5.22;3.00;;;15.80;75.90;;;;;;5048589;28;20032;-73
2021/08/29 04:33:00;;;;;;;4.93;2.78;;;15.80;75.80;;;;;;5049728;28;20036;-73
2021/08/29 04:35:26;;;;;;;6.60;3.53;;;15.80;76.00;;;;;;5051825;28;20029;-72
2021/08/29 04:37:52;;;;;;;4.35;3.00;;;15.80;75.70;;;;;;5048429;28;20083;-72
2021/08/29 04:40:18;;;;;;;5.80;2.80;;;15.80;75.80;;;;;;5049456;28;20033;-71
2021/08/29 04:42:45;;;;;;;6.22;3.05;;;15.70;75.50;;;;;;5051657;28;20049;-71
2021/08/29 04:45:10;;;;;;;6.47;3.25;;;15.70;76.10;;;;;;5053656;28;20022;-71
2021/08/29 04:47:37;;;;;;;5.68;2.63;;;15.70;75.90;;;;;;5055602;28;20033;-72
2021/08/29 04:50:04;;;;;;;4.70;2.78;;;15.70;76.00;;;;;;5053828;28;20032;-72
2021/08/29 04:52:30;;;;;;;6.10;3.17;;;15.60;75.90;;;;;;5052995;28;20029;-71
2021/08/29 04:54:56;;;;;;;5.40;3.03;;;15.70;76.20;;;;;;5053402;28;20398;-72
2021/08/29 04:57:22;;;;;;;7.65;2.97;;;15.60;76.10;;;;;;5053371;28;20036;-71
2021/08/29 04:59:48;;;;;;;6.90;3.03;;;15.60;76.10;;;;;;5053947;28;20367;-71
2021/08/29 05:02:13;;;;;;;4.88;3.45;;;15.60;76.30;;;;;;5054754;28;20017;-72
2021/08/29 05:04:39;;;;;;;5.72;3.08;;;15.60;76.40;;;;;;5053185;28;20025;-71
2021/08/29 05:07:05;;;;;;;6.03;3.08;;;15.60;76.30;;;;;;5052656;28;20397;-71
2021/08/29 05:09:30;;;;;;;4.93;3.05;;;15.60;76.30;;;;;;5051737;28;20029;-71
2021/08/29 05:11:56;;;;;;;6.57;3.10;;;15.60;76.50;;;;;;5053043;28;20046;-72
2021/08/29 05:14:22;;;;;;;6.20;3.20;;;15.60;76.20;;;;;;5055062;28;20033;-72
2021/08/29 05:16:47;;;;;;;5.30;2.55;;;15.50;76.20;;;;;;5052907;28;20028;-72
2021/08/29 05:19:13;;;;;;;7.68;3.10;;;15.50;76.30;;;;;;5052991;28;20024;-71
2021/08/29 05:21:38;;;;;;;5.40;2.85;;;15.50;76.30;;;;;;5052456;28;20459;-72
2021/08/29 05:24:04;;;;;;;7.05;3.30;;;15.60;76.60;;;;;;5052857;28;20028;-72
2021/08/29 05:26:30;;;;;;;6.90;3.53;;;15.50;76.20;;;;;;5054888;28;20039;-73
2021/08/29 05:28:56;;;;;;;5.10;2.78;;;15.50;76.40;;;;;;5052627;28;20401;-75
2021/08/29 05:31:21;;;;;;;7.03;2.97;;;15.50;76.20;;;;;;5052738;28;20476;-72
2021/08/29 05:33:47;;;;;;;6.25;2.97;;;15.50;76.30;;;;;;5052496;28;20500;-72
2021/08/29 05:36:13;;;;;;;6.75;3.40;;;15.40;76.20;;;;;;5052270;28;20020;-72
2021/08/29 05:38:38;;;;;;;6.93;2.90;;;15.40;76.70;;;;;;5052940;28;20059;-72
2021/08/29 05:41:04;;;;;;;6.43;3.10;;;15.40;76.70;;;;;;5052802;28;20053;-72
2021/08/29 05:43:29;;;;;;;5.18;3.30;;;15.40;76.60;;;;;;5051147;28;20033;-72
2021/08/29 05:45:55;;;;;;;6.68;3.03;;;15.40;76.50;;;;;;5052270;28;20481;-72
2021/08/29 05:48:21;;;;;;;6.28;3.00;;;15.50;76.80;;;;;;5051083;28;20025;-71
2021/08/29 05:50:46;;;;;;;5.55;2.90;;;15.50;76.60;;;;;;5051516;28;20021;-72
2021/08/29 05:53:12;;;;;;;5.25;3.08;;;15.60;76.30;;;;;;5053031;28;20033;-71
2021/08/29 05:55:37;;;;;;;4.93;2.72;;;15.70;76.40;;;;;;5050824;28;20477;-71
2021/08/29 05:58:04;;;;;;;7.85;3.17;;;15.80;76.40;;;;;;5052056;28;20112;-71
2021/08/29 06:00:29;;;;;;;6.22;3.05;;;15.80;76.60;;;;;;5052212;28;20017;-71
2021/08/29 06:02:55;;;;;;;5.18;2.97;;;15.90;76.40;;;;;;5052105;28;20033;-72
2021/08/29 06:05:20;;;;;;;4.68;3.03;;;16.00;76.10;;;;;;5052442;28;20029;-71
2021/08/29 06:07:46;;;;;;;5.15;2.92;;;16.00;76.10;;;;;;5051898;28;20109;-72
2021/08/29 06:10:12;;;;;;;5.30;2.97;;;16.10;76.00;;;;;;5051791;28;20032;-73
2021/08/29 06:12:39;;;;;;;4.93;2.63;;;16.20;75.90;;;;;;5051918;28;20040;-71
2021/08/29 06:15:06;;;;;;;5.03;2.85;;;16.30;75.60;;;;;;5036120;28;20113;-71
2021/08/29 06:17:31;;;;;;;6.65;2.70;;;16.40;75.50;;;;;;5053719;28;20036;-71
2021/08/29 06:19:57;;;;;;;6.03;2.63;;;16.40;75.30;;;;;;5051534;28;20032;-71
2021/08/29 06:22:22;;;;;;;4.20;2.72;;;16.50;75.30;;;;;;5051371;28;20497;-71
2021/08/29 06:24:48;;;;;;;5.32;3.10;;;16.60;75.00;;;;;;5051579;28;20059;-71
2021/08/29 06:27:13;;;;;;;5.30;2.75;;;16.70;75.90;;;;;;5050273;28;20029;-71
2021/08/29 06:29:39;;;;;;;5.30;2.58;;;16.80;74.60;;;;;;5052857;28;20465;-73
2021/08/29 06:32:05;;;;;;;4.47;2.70;;;16.80;74.50;;;;;;5052109;28;20493;-74
2021/08/29 06:34:31;;;;;;;6.70;2.70;;;16.90;74.40;;;;;;5049555;28;20037;-71
2021/08/29 06:36:57;;;;;;;6.13;2.97;;;17.00;74.40;;;;;;5050486;28;20082;-72
2021/08/29 06:39:22;;;;;;;5.93;2.33;;;17.10;74.00;;;;;;5049615;28;20029;-72
2021/08/29 06:41:48;;;;;;;5.05;2.83;;;17.10;73.60;;;;;;5051231;28;20195;-72
2021/08/29 06:44:13;;;;;;;5.40;2.28;;;17.20;73.90;;;;;;5052581;28;20550;-71
2021/08/29 06:46:39;;;;;;;5.63;2.63;;;17.30;73.70;;;;;;5049778;28;20445;-71
2021/08/29 06:49:05;;;;;;;5.22;2.58;;;17.40;73.50;;;;;;5050713;28;20017;-72
2021/08/29 06:51:30;;;;;;;5.47;2.70;;;17.50;73.20;;;;;;5051221;28;20024;-71
2021/08/29 06:53:56;;;;;;;6.78;2.65;;;17.60;73.30;;;;;;5049365;28;20041;-74
2021/08/29 06:56:21;;;;;;;4.70;2.40;;;17.70;73.10;;;;;;5053093;28;20032;-72
2021/08/29 06:58:47;;;;;;;5.15;2.65;;;17.90;72.50;;;;;;5057007;28;20017;-72
2021/08/29 07:01:13;;;;;;;4.63;2.65;;;17.90;72.40;;;;;;5057917;28;20496;-71
2021/08/29 07:03:38;;;;;;;7.97;2.47;;;18.00;72.20;;;;;;5049903;28;20019;-71
2021/08/29 07:06:07;;;;;;;8.98;2.78;;;18.00;72.00;;;;;;5054693;28;20040;-72
2021/08/29 07:08:33;;;;;;;4.78;2.30;;;18.20;72.20;;;;;;5051503;28;20036;-72
2021/08/29 07:10:58;;;;;;;6.38;2.78;;;18.30;71.70;;;;;;5050533;28;20025;-72
2021/08/29 07:13:24;;;;;;;6.32;2.53;;;18.30;71.40;;;;;;5048935;28;20123;-72
2021/08/29 07:15:50;;;;;;;7.63;2.78;;;18.40;71.70;;;;;;5060484;28;20025;-72
2021/08/29 07:18:15;;;;;;;4.68;2.45;;;18.50;71.30;;;;;;5050280;28;20021;-72
2021/08/29 07:20:42;;;;;;;6.15;2.33;;;18.60;71.20;;;;;;5050764;28;20021;-72
2021/08/29 07:23:08;;;;;;;6.22;2.60;;;18.80;71.30;;;;;;5050697;28;20504;-72
2021/08/29 07:25:34;;;;;;;5.78;2.20;;;18.90;70.50;;;;;;5050061;28;20017;-72
2021/08/29 07:28:03;;;;;;;4.13;2.08;;;18.90;70.40;;;;;;5050177;28;20115;-75
2021/08/29 07:30:29;;;;;;;4.80;2.22;;;19.10;70.70;;;;;;5050423;28;20025;-74
2021/08/29 07:32:55;;;;;;;6.32;2.47;;;19.30;71.00;;;;;;5051438;28;20048;-73
2021/08/29 07:35:20;;;;;;;5.45;2.40;;;19.50;70.10;;;;;;5052289;28;20025;-73
2021/08/29 07:37:46;;;;;;;7.40;2.60;;;19.70;69.80;;;;;;5049778;28;20171;-73
2021/08/29 07:40:13;;;;;;;5.57;2.42;;;19.80;69.40;;;;;;5046711;28;20021;-73
2021/08/29 07:42:38;;;;;;;6.70;2.08;;;19.90;69.10;;;;;;5050079;28;20075;-73
2021/08/29 07:45:05;;;;;;;8.05;2.38;;;20.00;68.80;;;;;;5049418;28;20028;-73
2021/08/29 07:47:31;;;;;;;8.18;2.50;;;20.10;68.40;;;;;;5050063;28;20119;-73
2021/08/29 07:49:57;;;;;;;6.72;2.35;;;20.30;68.10;;;;;;5049736;28;20068;-73
2021/08/29 07:52:23;;;;;;;4.82;2.22;;;20.40;68.10;;;;;;5049809;28;20582;-73
2021/08/29 07:54:49;;;;;;;8.90;2.70;;;20.40;67.00;;;;;;5050000;28;20147;-73
2021/08/29 07:57:14;;;;;;;7.75;2.55;;;20.40;67.30;;;;;;5047989;28;20017;-73
2021/08/29 07:59:40;;;;;;;6.65;2.70;;;20.50;67.40;;;;;;5049962;28;20041;-75
2021/08/29 08:02:06;;;;;;;3.88;2.28;;;20.70;67.60;;;;;;5048686;28;20028;-73
2021/08/29 08:04:31;;;;;;;4.70;2.50;;;20.80;67.10;;;;;;5049465;28;20021;-75
2021/08/29 08:06:57;;;;;;;7.72;2.25;;;21.00;66.80;;;;;;5057239;28;20044;-74
2021/08/29 08:09:23;;;;;;;6.85;2.30;;;21.10;66.90;;;;;;5050097;28;20537;-73
2021/08/29 08:11:48;;;;;;;4.63;2.42;;;21.20;66.10;;;;;;5050472;28;20032;-73
2021/08/29 08:14:14;;;;;;;4.97;2.58;;;21.30;65.30;;;;;;5051297;28;20059;-75
2021/08/29 08:16:39;;;;;;;4.88;2.20;;;21.20;65.30;;;;;;5052753;28;20047;-75
2021/08/29 08:19:05;;;;;;;2.95;2.05;;;21.30;65.50;;;;;;5053020;28;20112;-74
2021/08/29 08:21:31;;;;;;;5.57;2.17;;;21.50;64.90;;;;;;5053784;28;20485;-75
2021/08/29 08:23:56;;;;;;;4.63;2.05;;;21.60;65.10;;;;;;5043710;28;20505;-75
2021/08/29 08:26:22;;;;;;;6.13;2.38;;;21.60;64.30;;;;;;5054071;28;20029;-76
2021/08/29 08:28:48;;;;;;;5.18;2.35;;;21.80;64.00;;;;;;5053347;28;20025;-75
2021/08/29 08:31:13;;;;;;;4.40;2.45;;;21.60;63.00;;;;;;5053433;28;20036;-75
2021/08/29 08:33:39;;;;;;;4.60;2.05;;;21.50;63.40;;;;;;5053557;28;20063;-75
2021/08/29 08:36:04;;;;;;;4.20;1.85;;;21.70;63.70;;;;;;5052678;28;20048;-75
2021/08/29 08:38:30;;;;;;;5.65;1.95;;;21.50;61.50;;;;;;5053955;28;20029;-75
2021/08/29 08:40:56;;;;;;;5.70;2.05;;;21.10;62.50;;;;;;5053128;28;20029;-76
2021/08/29 08:43:21;;;;;;;5.35;2.13;;;21.00;63.10;;;;;;5053527;28;20033;-75
2021/08/29 08:45:47;;;;;;;5.78;2.20;;;21.00;63.80;;;;;;5053110;28;20059;-75
2021/08/29 08:48:14;;;;;;;6.07;2.30;;;20.90;63.60;;;;;;5052130;28;20028;-75
2021/08/29 08:50:45;;;;;;;4.78;1.98;;;20.70;63.70;;;;;;5053997;28;20025;-76
2021/08/29 08:53:14;;;;;;;5.65;2.30;;;20.50;64.00;;;;;;5054155;28;20036;-75
2021/08/29 08:55:41;;;;;;;4.15;1.95;;;20.50;64.40;;;;;;5052975;28;20470;-75
2021/08/29 08:58:09;;;;;;;4.57;2.20;;;20.40;64.10;;;;;;5052871;28;20111;-75
2021/08/29 09:00:35;;;;;;;5.63;2.05;;;20.40;64.90;;;;;;5052956;28;20108;-76
2021/08/29 09:03:01;;;;;;;4.03;1.77;;;20.40;64.30;;;;;;5051507;28;20129;-75
2021/08/29 09:05:27;;;;;;;5.78;1.70;;;20.20;64.60;;;;;;5060577;28;20103;-76
2021/08/29 09:07:53;;;;;;;4.90;2.10;;;20.10;65.10;;;;;;5054316;28;20117;-76
2021/08/29 09:10:18;;;;;;;5.22;2.00;;;20.10;65.20;;;;;;5052915;28;20029;-76
2021/08/29 09:13:03;;;;;;;4.53;2.03;;;20.20;65.60;;;;;;5052749;28;20119;-75
2021/08/29 09:15:30;;;;;;;4.95;1.67;;;20.40;65.60;;;;;;5048166;28;20033;-75
2021/08/29 09:17:56;;;;;;;5.97;1.50;;;20.70;64.20;;;;;;5051795;28;20120;-76
2021/08/29 09:20:27;;;;;;;4.68;1.70;;;21.00;66.00;;;;;;5054482;28;20021;-76
2021/08/29 09:22:58;;;;;;;4.20;1.60;;;21.40;63.40;;;;;;5052670;28;20112;-75
2021/08/29 09:25:29;;;;;;;3.45;1.50;;;21.10;62.20;;;;;;5051164;28;20045;-75
2021/08/29 09:27:58;;;;;;;3.90;1.73;;;21.10;61.70;;;;;;5050924;28;20094;-75
2021/08/29 09:30:25;;;;;;;4.28;1.77;;;21.30;62.10;;;;;;5052742;28;20048;-75
2021/08/29 09:32:58;;;;;;;3.75;1.67;;;21.20;62.00;;;;;;5052975;28;20059;-75
2021/08/29 09:35:32;;;;;;;2.72;1.30;;;22.10;63.50;;;;;;5052990;28;20057;-76
2021/08/29 09:37:59;;;;;;;3.67;1.58;;;23.20;62.10;;;;;;5052607;28;20025;-75
2021/08/29 09:40:34;;;;;;;6.85;1.65;;;23.60;55.30;;;;;;5052382;28;20435;-75
2021/08/29 09:43:02;;;;;;;5.38;1.80;;;23.60;55.10;;;;;;5050482;28;20114;-75
2021/08/29 09:45:36;;;;;;;3.08;1.50;;;23.50;54.40;;;;;;5051978;28;20099;-79
2021/08/29 09:48:04;;;;;;;2.95;1.50;;;23.00;55.40;;;;;;5062044;28;20056;-77
2021/08/29 09:50:32;;;;;;;3.00;1.25;;;22.90;56.50;;;;;;5060623;28;20100;-74
2021/08/29 09:53:02;;;;;;;4.32;1.73;;;23.10;55.50;;;;;;5052785;28;20033;-75
2021/08/29 09:55:33;;;;;;;3.10;1.33;;;23.00;56.00;;;;;;5051856;28;20462;-74
2021/08/29 09:57:59;;;;;;;4.78;1.80;;;23.40;54.80;;;;;;5051582;28;20112;-75
2021/08/29 10:00:25;;;;;;;5.18;1.70;;;23.80;54.00;;;;;;5051572;28;20029;-75
2021/08/29 10:03:05;;;;;;;4.35;1.77;;;23.60;53.30;;;;;;5053181;28;20040;-75
2021/08/29 10:05:31;;;;;;;2.97;1.63;;;23.10;54.60;;;;;;5052992;28;20045;-74
2021/08/29 10:08:09;;;;;;;3.65;1.33;;;23.10;54.40;;;;;;5051880;28;20060;-75
2021/08/29 10:10:40;;;;;;;3.70;1.50;;;23.50;55.10;;;;;;5050526;28;20024;-75
2021/08/29 10:13:07;;;;;;;6.03;1.85;;;23.20;53.10;;;;;;5050929;28;20112;-76
2021/08/29 10:15:36;;;;;;;3.78;1.58;;;23.40;54.60;;;;;;5051670;28;20024;-74
2021/08/29 10:18:02;;;;;;;4.25;1.70;;;23.50;53.70;;;;;;5051536;28;20032;-74
2021/08/29 10:20:31;;;;;;;3.45;1.50;;;23.20;53.40;;;;;;5060744;28;20017;-75
2021/08/29 10:22:58;;;;;;;3.97;1.50;;;23.00;54.40;;;;;;5052460;28;20032;-75
2021/08/29 10:25:24;;;;;;;4.00;1.50;;;22.90;54.20;;;;;;5051227;28;20366;-75
2021/08/29 10:27:59;;;;;;;3.50;1.60;;;23.00;53.70;;;;;;5050885;28;20032;-74
2021/08/29 10:30:27;;;;;;;3.55;1.40;;;22.80;53.90;;;;;;5051034;28;20061;-74
2021/08/29 10:32:56;;;;;;;2.97;1.60;;;23.90;56.00;;;;;;5050867;28;20044;-74
2021/08/29 10:35:22;;;;;;;3.05;1.50;;;25.30;52.80;;;;;;5051394;28;20060;-74
2021/08/29 10:37:47;;;;;;;4.43;1.40;;;26.40;50.70;;;;;;5051196;28;20047;-74
2021/08/29 10:40:14;;;;;;;2.70;1.27;;;27.20;45.70;;;;;;5051199;28;20394;-74
2021/08/29 10:42:44;;;;;;;2.17;1.40;;;27.60;46.10;;;;;;5050838;28;20045;-75
2021/08/29 10:45:11;;;;;;;2.42;1.30;;;28.30;44.40;;;;;;5035782;28;20032;-75
2021/08/29 10:47:38;;;;;;;3.17;1.30;;;28.10;39.20;;;;;;5053279;28;20033;-75
2021/08/29 10:50:07;;;;;;;2.67;1.50;;;28.00;41.60;;;;;;5051422;28;20024;-75
2021/08/29 10:52:34;;;;;;;3.33;1.60;;;27.40;41.80;;;;;;5051015;28;20032;-75
2021/08/29 10:55:05;;;;;;;2.40;1.30;;;27.50;43.50;;;;;;5049669;28;20043;-75
2021/08/29 10:57:36;;;;;;;2.72;1.40;;;27.10;44.90;;;;;;5051070;28;20029;-75
2021/08/29 11:00:10;;;;;;;2.50;1.30;;;27.80;45.50;;;;;;5050405;28;20025;-78
2021/08/29 11:02:48;;;;;;;3.17;1.52;;;28.70;44.10;;;;;;5049018;28;20017;-75
2021/08/29 11:05:27;;;;;;;5.10;3.10;;;28.10;42.90;;;;;;5051498;28;20470;-74
2021/08/29 11:07:53;;;;;;;3.08;1.73;;;27.30;41.60;;;;;;5050888;28;20151;-74
2021/08/29 11:10:37;;;;;;;3.20;1.80;;;26.90;43.30;;;;;;5050266;28;20048;-75
2021/08/29 11:13:27;;;;;;;3.42;1.60;;;25.90;44.40;;;;;;5048901;28;20024;-75
2021/08/29 11:16:14;;;;;;;3.28;1.50;;;24.90;45.80;;;;;;5049221;28;20021;-74
2021/08/29 11:19:01;;;;;;;5.20;2.47;;;24.20;47.70;;;;;;5050935;28;20500;-74
2021/08/29 11:21:53;;;;;;;6.68;2.15;;;23.70;49.40;;;;;;5035035;28;20382;-74
2021/08/29 11:24:50;;;;;;;4.40;1.55;;;23.60;50.70;;;;;;5015049;28;20038;-74
2021/08/29 11:27:40;;;;;;;3.83;1.73;;;23.90;51.80;;;;;;5014282;28;20029;-74
2021/08/29 11:30:14;;;;;;;4.03;1.50;;;24.40;52.00;;;;;;5013046;28;20038;-74
2021/08/29 11:32:46;;;;;;;4.38;1.77;;;25.70;50.40;;;;;;5029734;28;20445;-74
2021/08/29 11:35:29;;;;;;;4.15;1.80;;;26.90;46.60;;;;;;5025150;28;20041;-74
2021/08/29 11:38:07;;;;;;;3.90;1.30;;;26.60;43.10;;;;;;5025300;28;20033;-73
2021/08/29 11:40:51;;;;;;;3.20;1.45;;;25.90;43.50;;;;;;5012702;28;20072;-74
2021/08/29 11:43:21;;;;;;;4.25;1.75;;;25.50;43.60;;;;;;5029713;28;20035;-75
2021/08/29 11:46:01;;;;;;;4.40;1.80;;;26.10;45.90;;;;;;5029402;28;20030;-74
2021/08/29 11:48:29;;;;;;;3.85;1.40;;;27.40;46.20;;;;;;5045280;28;20116;-75
2021/08/29 11:50:55;;;;;;;5.03;2.10;;;28.10;43.20;;;;;;5029166;28;20040;-75
2021/08/29 11:53:21;;;;;;;4.95;2.55;;;27.90;40.50;;;;;;5029076;28;20033;-75
2021/08/29 11:55:53;;;;;;;3.70;1.75;;;27.80;41.10;;;;;;5029028;28;20040;-75
2021/08/29 11:58:20;;;;;;;2.85;1.52;;;27.40;42.30;;;;;;5029115;28;20544;-75
2021/08/29 12:00:49;;;;;;;4.05;1.33;;;27.30;43.00;;;;;;5036911;28;20037;-75
2021/08/29 12:03:16;;;;;;;8.93;5.70;;;28.10;43.90;;;;;;5049993;28;20029;-75
2021/08/29 12:06:01;;;;;;;3.97;2.10;;;28.10;41.00;;;;;;5051230;28;20017;-75
2021/08/29 12:08:35;;;;;;;2.95;2.08;;;27.90;44.60;;;;;;5050420;28;20051;-75
2021/08/29 12:11:01;;;;;;;5.22;2.72;;;28.10;40.30;;;;;;5049814;28;20032;-74
2021/08/29 12:13:30;;;;;;;2.15;1.63;;;28.90;40.90;;;;;;5049847;28;20413;-74
2021/08/29 12:16:01;;;;;;;2.80;1.70;;;30.30;40.00;;;;;;5049763;28;20025;-76
2021/08/29 12:18:27;;;;;;;3.05;1.63;;;30.80;36.80;;;;;;5048605;28;20033;-75
2021/08/29 12:20:53;;;;;;;3.15;1.40;;;31.30;34.90;;;;;;5049813;28;20397;-74
2021/08/29 12:23:20;;;;;;;2.38;1.17;;;30.60;35.00;;;;;;5049188;28;20063;-74
2021/08/29 12:25:58;;;;;;;2.67;1.20;;;29.40;35.90;;;;;;5048258;28;20048;-74
2021/08/29 12:28:24;;;;;;;2.28;1.20;;;30.00;38.20;;;;;;5048471;28;20132;-74
2021/08/29 12:30:55;;;;;;;2.67;1.17;;;31.30;35.90;;;;;;5044668;28;20059;-75
2021/08/29 12:33:22;;;;;;;2.97;1.20;;;32.00;33.00;;;;;;5049544;28;20449;-75
2021/08/29 12:35:49;;;;;;;2.08;1.02;;;32.80;32.00;;;;;;5050570;28;20088;-75
2021/08/29 12:38:20;;;;;;;1.98;1.20;;;32.20;32.10;;;;;;5045700;28;20067;-75
2021/08/29 12:40:47;;;;;;;3.20;1.20;;;32.90;32.00;;;;;;5047357;28;20017;-75
2021/08/29 12:43:13;;;;;;;1.73;1.00;;;34.00;30.00;;;;;;5049726;28;20028;-74
2021/08/29 12:45:39;;;;;;;2.10;0.93;;;32.90;28.90;;;;;;5048918;28;20509;-75
2021/08/29 12:48:06;;;;;;;2.45;1.27;;;33.80;30.20;;;;;;5049541;28;20025;-75
2021/08/29 12:50:31;;;;;;;3.38;1.40;;;32.60;29.50;;;;;;5040930;28;20034;-74